sensor_id;sensor_type;location;lat;lon;timestamp;P1;durP1;ratioP1;P2;durP2;ratioP2
74616;SDS011;63123;50.906;4.198;2022-12-08T00:02:16;2.90;;;2.70;;
74616;SDS011;63123;50.906;4.198;2022-12-08T00:04:42;2.70;;;2.50;;
74616;SDS011;63123;50.906;4.198;2022-12-08T00:07:26;2.83;;;2.63;;
74616;SDS011;63123;50.906;4.198;2022-12-08T00:10:10;2.72;;;2.53;;
74616;SDS011;63123;50.906;4.198;2022-12-08T00:12:36;2.80;;;2.60;;
74616;SDS011;63123;50.906;4.198;2022-12-08T00:15:01;3.33;;;3.08;;
74616;SDS011;63123;50.906;4.198;2022-12-08T00:17:27;2.85;;;2.65;;
74616;SDS011;63123;50.906;4.198;2022-12-08T00:19:52;3.00;;;2.80;;
74616;SDS011;63123;50.906;4.198;2022-12-08T00:22:18;2.50;;;2.30;;
74616;SDS011;63123;50.906;4.198;2022-12-08T00:24:44;3.08;;;2.88;;
74616;SDS011;63123;50.906;4.198;2022-12-08T00:27:11;2.60;;;2.40;;
74616;SDS011;63123;50.906;4.198;2022-12-08T00:29:37;3.65;;;3.22;;
74616;SDS011;63123;50.906;4.198;2022-12-08T00:32:04;2.90;;;2.70;;
74616;SDS011;63123;50.906;4.198;2022-12-08T00:34:30;2.88;;;2.67;;
74616;SDS011;63123;50.906;4.198;2022-12-08T00:36:56;2.70;;;2.50;;
74616;SDS011;63123;50.906;4.198;2022-12-08T00:39:21;2.72;;;2.53;;
74616;SDS011;63123;50.906;4.198;2022-12-08T00:41:47;3.10;;;2.90;;
74616;SDS011;63123;50.906;4.198;2022-12-08T00:44:31;3.07;;;2.80;;
74616;SDS011;63123;50.906;4.198;2022-12-08T00:46:57;2.95;;;2.75;;
74616;SDS011;63123;50.906;4.198;2022-12-08T00:49:22;3.33;;;3.03;;
74616;SDS011;63123;50.906;4.198;2022-12-08T00:51:48;2.70;;;2.50;;
74616;SDS011;63123;50.906;4.198;2022-12-08T00:54:15;2.65;;;2.45;;
74616;SDS011;63123;50.906;4.198;2022-12-08T00:56:41;2.83;;;2.63;;
74616;SDS011;63123;50.906;4.198;2022-12-08T00:59:06;3.05;;;2.78;;
74616;SDS011;63123;50.906;4.198;2022-12-08T01:01:32;2.78;;;2.58;;
74616;SDS011;63123;50.906;4.198;2022-12-08T01:04:01;2.97;;;2.78;;
74616;SDS011;63123;50.906;4.198;2022-12-08T01:06:29;2.85;;;2.65;;
74616;SDS011;63123;50.906;4.198;2022-12-08T01:08:54;3.00;;;2.80;;
74616;SDS011;63123;50.906;4.198;2022-12-08T01:11:20;2.80;;;2.60;;
74616;SDS011;63123;50.906;4.198;2022-12-08T01:13:45;2.90;;;2.70;;
74616;SDS011;63123;50.906;4.198;2022-12-08T01:16:18;3.20;;;3.00;;
74616;SDS011;63123;50.906;4.198;2022-12-08T01:18:48;3.65;;;3.25;;
74616;SDS011;63123;50.906;4.198;2022-12-08T01:21:14;3.25;;;2.83;;
74616;SDS011;63123;50.906;4.198;2022-12-08T01:23:40;2.97;;;2.60;;
74616;SDS011;63123;50.906;4.198;2022-12-08T01:26:07;2.92;;;2.72;;
74616;SDS011;63123;50.906;4.198;2022-12-08T01:28:34;2.95;;;2.75;;
74616;SDS011;63123;50.906;4.198;2022-12-08T01:31:00;3.28;;;3.08;;
74616;SDS011;63123;50.906;4.198;2022-12-08T01:33:26;2.97;;;2.67;;
74616;SDS011;63123;50.906;4.198;2022-12-08T01:35:52;2.80;;;2.60;;
74616;SDS011;63123;50.906;4.198;2022-12-08T01:38:19;3.53;;;3.20;;
74616;SDS011;63123;50.906;4.198;2022-12-08T01:40:46;3.10;;;2.90;;
74616;SDS011;63123;50.906;4.198;2022-12-08T01:43:15;3.10;;;2.80;;
74616;SDS011;63123;50.906;4.198;2022-12-08T01:45:42;3.33;;;2.67;;
74616;SDS011;63123;50.906;4.198;2022-12-08T01:48:10;2.83;;;2.63;;
74616;SDS011;63123;50.906;4.198;2022-12-08T01:50:46;2.97;;;2.78;;
74616;SDS011;63123;50.906;4.198;2022-12-08T01:53:15;3.17;;;2.90;;
74616;SDS011;63123;50.906;4.198;2022-12-08T01:55:46;2.70;;;2.50;;
74616;SDS011;63123;50.906;4.198;2022-12-08T01:58:17;2.88;;;2.67;;
74616;SDS011;63123;50.906;4.198;2022-12-08T02:00:50;2.85;;;2.63;;
74616;SDS011;63123;50.906;4.198;2022-12-08T02:03:30;3.13;;;2.92;;
74616;SDS011;63123;50.906;4.198;2022-12-08T02:06:02;2.53;;;2.33;;
74616;SDS011;63123;50.906;4.198;2022-12-08T02:08:28;3.33;;;3.03;;
74616;SDS011;63123;50.906;4.198;2022-12-08T02:10:55;2.70;;;2.50;;
74616;SDS011;63123;50.906;4.198;2022-12-08T02:13:21;3.75;;;3.45;;
74616;SDS011;63123;50.906;4.198;2022-12-08T02:18:49;2.90;;;2.70;;
74616;SDS011;63123;50.906;4.198;2022-12-08T02:23:55;2.97;;;2.70;;
74616;SDS011;63123;50.906;4.198;2022-12-08T02:35:35;2.60;;;2.40;;
74616;SDS011;63123;50.906;4.198;2022-12-08T02:41:36;3.50;;;3.20;;
74616;SDS011;63123;50.906;4.198;2022-12-08T02:49:33;2.95;;;2.75;;
74616;SDS011;63123;50.906;4.198;2022-12-08T02:54:41;2.95;;;2.75;;
74616;SDS011;63123;50.906;4.198;2022-12-08T03:07:43;3.35;;;3.10;;
74616;SDS011;63123;50.906;4.198;2022-12-08T03:10:36;3.00;;;2.70;;
74616;SDS011;63123;50.906;4.198;2022-12-08T03:13:13;2.97;;;2.78;;
74616;SDS011;63123;50.906;4.198;2022-12-08T03:15:44;2.90;;;2.70;;
74616;SDS011;63123;50.906;4.198;2022-12-08T03:18:13;2.88;;;2.67;;
74616;SDS011;63123;50.906;4.198;2022-12-08T03:20:41;2.90;;;2.70;;
74616;SDS011;63123;50.906;4.198;2022-12-08T03:23:09;3.33;;;3.03;;
74616;SDS011;63123;50.906;4.198;2022-12-08T03:25:40;3.05;;;2.85;;
74616;SDS011;63123;50.906;4.198;2022-12-08T03:28:10;3.30;;;3.00;;
74616;SDS011;63123;50.906;4.198;2022-12-08T03:30:38;3.50;;;3.22;;
74616;SDS011;63123;50.906;4.198;2022-12-08T03:33:08;2.72;;;2.53;;
74616;SDS011;63123;50.906;4.198;2022-12-08T03:36:03;3.30;;;3.10;;
74616;SDS011;63123;50.906;4.198;2022-12-08T03:38:37;3.00;;;2.80;;
74616;SDS011;63123;50.906;4.198;2022-12-08T03:41:05;2.90;;;2.60;;
74616;SDS011;63123;50.906;4.198;2022-12-08T03:43:52;3.15;;;2.95;;
74616;SDS011;63123;50.906;4.198;2022-12-08T03:46:22;3.88;;;3.58;;
74616;SDS011;63123;50.906;4.198;2022-12-08T03:48:49;2.95;;;2.75;;
74616;SDS011;63123;50.906;4.198;2022-12-08T03:51:15;3.08;;;2.83;;
74616;SDS011;63123;50.906;4.198;2022-12-08T03:53:41;3.20;;;2.95;;
74616;SDS011;63123;50.906;4.198;2022-12-08T03:56:15;3.00;;;2.80;;
74616;SDS011;63123;50.906;4.198;2022-12-08T03:58:43;3.20;;;2.90;;
74616;SDS011;63123;50.906;4.198;2022-12-08T04:01:09;3.25;;;2.97;;
74616;SDS011;63123;50.906;4.198;2022-12-08T04:03:35;2.90;;;2.70;;
74616;SDS011;63123;50.906;4.198;2022-12-08T04:06:01;3.33;;;3.10;;
74616;SDS011;63123;50.906;4.198;2022-12-08T04:08:26;2.72;;;2.53;;
74616;SDS011;63123;50.906;4.198;2022-12-08T04:10:52;3.25;;;2.95;;
74616;SDS011;63123;50.906;4.198;2022-12-08T04:13:17;3.22;;;3.00;;
74616;SDS011;63123;50.906;4.198;2022-12-08T04:15:44;3.08;;;2.88;;
74616;SDS011;63123;50.906;4.198;2022-12-08T04:18:10;3.03;;;2.83;;
74616;SDS011;63123;50.906;4.198;2022-12-08T04:20:39;3.22;;;2.95;;
74616;SDS011;63123;50.906;4.198;2022-12-08T04:23:06;3.05;;;2.75;;
74616;SDS011;63123;50.906;4.198;2022-12-08T04:25:33;3.65;;;3.35;;
74616;SDS011;63123;50.906;4.198;2022-12-08T04:27:59;3.08;;;2.88;;
74616;SDS011;63123;50.906;4.198;2022-12-08T04:30:25;3.30;;;3.03;;
74616;SDS011;63123;50.906;4.198;2022-12-08T04:32:50;3.45;;;3.15;;
74616;SDS011;63123;50.906;4.198;2022-12-08T04:35:16;3.10;;;2.90;;
74616;SDS011;63123;50.906;4.198;2022-12-08T04:37:41;3.40;;;2.92;;
74616;SDS011;63123;50.906;4.198;2022-12-08T04:40:08;2.50;;;2.40;;
74616;SDS011;63123;50.906;4.198;2022-12-08T04:42:35;4.30;;;3.90;;
74616;SDS011;63123;50.906;4.198;2022-12-08T04:45:00;3.67;;;2.85;;
74616;SDS011;63123;50.906;4.198;2022-12-08T04:47:26;3.17;;;2.92;;
74616;SDS011;63123;50.906;4.198;2022-12-08T04:49:52;3.33;;;3.03;;
74616;SDS011;63123;50.906;4.198;2022-12-08T04:52:17;3.00;;;2.80;;
74616;SDS011;63123;50.906;4.198;2022-12-08T04:54:43;3.72;;;3.42;;
74616;SDS011;63123;50.906;4.198;2022-12-08T04:57:08;2.80;;;2.60;;
74616;SDS011;63123;50.906;4.198;2022-12-08T04:59:34;3.00;;;2.75;;
74616;SDS011;63123;50.906;4.198;2022-12-08T05:02:00;3.20;;;3.00;;
74616;SDS011;63123;50.906;4.198;2022-12-08T05:04:25;3.13;;;2.90;;
74616;SDS011;63123;50.906;4.198;2022-12-08T05:06:51;3.55;;;3.25;;
74616;SDS011;63123;50.906;4.198;2022-12-08T05:09:17;3.22;;;2.80;;
74616;SDS011;63123;50.906;4.198;2022-12-08T05:11:42;3.20;;;3.00;;
74616;SDS011;63123;50.906;4.198;2022-12-08T05:14:11;2.70;;;2.50;;
74616;SDS011;63123;50.906;4.198;2022-12-08T05:16:39;2.40;;;2.30;;
74616;SDS011;63123;50.906;4.198;2022-12-08T05:19:05;2.55;;;2.35;;
74616;SDS011;63123;50.906;4.198;2022-12-08T05:21:30;2.65;;;2.45;;
74616;SDS011;63123;50.906;4.198;2022-12-08T05:23:56;3.10;;;2.90;;
74616;SDS011;63123;50.906;4.198;2022-12-08T05:26:21;3.30;;;3.00;;
74616;SDS011;63123;50.906;4.198;2022-12-08T05:28:47;3.35;;;3.05;;
74616;SDS011;63123;50.906;4.198;2022-12-08T05:31:13;3.08;;;2.85;;
74616;SDS011;63123;50.906;4.198;2022-12-08T05:33:40;2.78;;;2.58;;
74616;SDS011;63123;50.906;4.198;2022-12-08T05:36:07;2.90;;;2.70;;
74616;SDS011;63123;50.906;4.198;2022-12-08T05:38:34;2.92;;;2.72;;
74616;SDS011;63123;50.906;4.198;2022-12-08T05:40:59;2.63;;;2.42;;
74616;SDS011;63123;50.906;4.198;2022-12-08T05:43:25;2.88;;;2.67;;
74616;SDS011;63123;50.906;4.198;2022-12-08T05:45:51;2.50;;;2.30;;
74616;SDS011;63123;50.906;4.198;2022-12-08T05:48:17;2.58;;;2.38;;
74616;SDS011;63123;50.906;4.198;2022-12-08T05:50:46;2.80;;;2.60;;
74616;SDS011;63123;50.906;4.198;2022-12-08T05:53:13;3.13;;;2.92;;
74616;SDS011;63123;50.906;4.198;2022-12-08T05:55:39;2.45;;;2.25;;
74616;SDS011;63123;50.906;4.198;2022-12-08T05:58:05;2.80;;;2.53;;
74616;SDS011;63123;50.906;4.198;2022-12-08T06:00:31;2.55;;;2.35;;
74616;SDS011;63123;50.906;4.198;2022-12-08T06:02:58;2.75;;;2.55;;
74616;SDS011;63123;50.906;4.198;2022-12-08T06:05:24;2.47;;;2.28;;
74616;SDS011;63123;50.906;4.198;2022-12-08T06:07:50;3.00;;;2.80;;
74616;SDS011;63123;50.906;4.198;2022-12-08T06:10:15;2.88;;;2.67;;
74616;SDS011;63123;50.906;4.198;2022-12-08T06:12:41;3.00;;;2.80;;
74616;SDS011;63123;50.906;4.198;2022-12-08T06:15:07;3.20;;;2.90;;
74616;SDS011;63123;50.906;4.198;2022-12-08T06:17:33;2.67;;;2.47;;
74616;SDS011;63123;50.906;4.198;2022-12-08T06:19:58;2.85;;;2.65;;
74616;SDS011;63123;50.906;4.198;2022-12-08T06:22:24;3.10;;;2.90;;
74616;SDS011;63123;50.906;4.198;2022-12-08T06:24:49;3.17;;;2.67;;
74616;SDS011;63123;50.906;4.198;2022-12-08T06:27:15;2.63;;;2.47;;
74616;SDS011;63123;50.906;4.198;2022-12-08T06:29:40;3.00;;;2.70;;
74616;SDS011;63123;50.906;4.198;2022-12-08T06:32:06;2.55;;;2.30;;
74616;SDS011;63123;50.906;4.198;2022-12-08T06:34:32;2.70;;;2.50;;
74616;SDS011;63123;50.906;4.198;2022-12-08T06:36:57;3.28;;;2.75;;
74616;SDS011;63123;50.906;4.198;2022-12-08T06:39:23;2.50;;;2.30;;
74616;SDS011;63123;50.906;4.198;2022-12-08T06:41:48;2.55;;;2.35;;
74616;SDS011;63123;50.906;4.198;2022-12-08T06:44:32;2.60;;;2.15;;
74616;SDS011;63123;50.906;4.198;2022-12-08T06:46:58;2.70;;;2.50;;
74616;SDS011;63123;50.906;4.198;2022-12-08T06:49:23;2.58;;;2.38;;
74616;SDS011;63123;50.906;4.198;2022-12-08T06:51:49;3.40;;;2.75;;
74616;SDS011;63123;50.906;4.198;2022-12-08T06:54:14;2.72;;;2.53;;
74616;SDS011;63123;50.906;4.198;2022-12-08T06:56:40;2.63;;;2.42;;
74616;SDS011;63123;50.906;4.198;2022-12-08T06:59:05;2.90;;;2.60;;
74616;SDS011;63123;50.906;4.198;2022-12-08T07:01:31;2.65;;;2.45;;
74616;SDS011;63123;50.906;4.198;2022-12-08T07:03:57;3.00;;;2.75;;
74616;SDS011;63123;50.906;4.198;2022-12-08T07:06:23;2.25;;;2.03;;
74616;SDS011;63123;50.906;4.198;2022-12-08T07:08:49;2.63;;;2.42;;
74616;SDS011;63123;50.906;4.198;2022-12-08T07:11:14;2.67;;;2.47;;
74616;SDS011;63123;50.906;4.198;2022-12-08T07:13:41;2.72;;;2.53;;
74616;SDS011;63123;50.906;4.198;2022-12-08T07:16:10;2.60;;;2.20;;
74616;SDS011;63123;50.906;4.198;2022-12-08T07:18:36;2.53;;;2.33;;
74616;SDS011;63123;50.906;4.198;2022-12-08T07:21:06;2.42;;;2.30;;
74616;SDS011;63123;50.906;4.198;2022-12-08T07:23:33;2.60;;;2.40;;
74616;SDS011;63123;50.906;4.198;2022-12-08T07:26:03;2.22;;;2.03;;
74616;SDS011;63123;50.906;4.198;2022-12-08T07:28:33;3.33;;;2.85;;
74616;SDS011;63123;50.906;4.198;2022-12-08T07:31:00;2.72;;;2.53;;
74616;SDS011;63123;50.906;4.198;2022-12-08T07:33:26;2.70;;;2.50;;
74616;SDS011;63123;50.906;4.198;2022-12-08T07:35:55;2.22;;;2.00;;
74616;SDS011;63123;50.906;4.198;2022-12-08T07:38:23;2.72;;;2.40;;
74616;SDS011;63123;50.906;4.198;2022-12-08T07:40:50;2.25;;;2.10;;
74616;SDS011;63123;50.906;4.198;2022-12-08T07:43:16;2.70;;;2.33;;
74616;SDS011;63123;50.906;4.198;2022-12-08T07:45:41;3.03;;;2.33;;
74616;SDS011;63123;50.906;4.198;2022-12-08T07:48:07;2.80;;;2.03;;
74616;SDS011;63123;50.906;4.198;2022-12-08T07:50:33;2.05;;;1.95;;
74616;SDS011;63123;50.906;4.198;2022-12-08T07:52:58;2.42;;;2.22;;
74616;SDS011;63123;50.906;4.198;2022-12-08T07:55:24;2.63;;;2.40;;
74616;SDS011;63123;50.906;4.198;2022-12-08T07:57:50;2.78;;;2.58;;
74616;SDS011;63123;50.906;4.198;2022-12-08T08:00:16;2.78;;;2.50;;
74616;SDS011;63123;50.906;4.198;2022-12-08T08:02:43;2.60;;;2.40;;
74616;SDS011;63123;50.906;4.198;2022-12-08T08:05:08;2.10;;;2.00;;
74616;SDS011;63123;50.906;4.198;2022-12-08T08:07:36;2.53;;;2.33;;
74616;SDS011;63123;50.906;4.198;2022-12-08T08:10:04;2.15;;;1.95;;
74616;SDS011;63123;50.906;4.198;2022-12-08T08:12:30;2.42;;;2.00;;
74616;SDS011;63123;50.906;4.198;2022-12-08T08:14:56;2.80;;;2.60;;
74616;SDS011;63123;50.906;4.198;2022-12-08T08:17:22;2.42;;;2.15;;
74616;SDS011;63123;50.906;4.198;2022-12-08T08:19:47;2.65;;;2.45;;
74616;SDS011;63123;50.906;4.198;2022-12-08T08:22:13;3.20;;;2.90;;
74616;SDS011;63123;50.906;4.198;2022-12-08T08:24:39;3.30;;;3.00;;
74616;SDS011;63123;50.906;4.198;2022-12-08T08:27:04;2.85;;;2.65;;
74616;SDS011;63123;50.906;4.198;2022-12-08T08:29:30;3.40;;;3.08;;
74616;SDS011;63123;50.906;4.198;2022-12-08T08:31:55;3.25;;;2.95;;
74616;SDS011;63123;50.906;4.198;2022-12-08T08:34:21;3.28;;;3.05;;
74616;SDS011;63123;50.906;4.198;2022-12-08T08:36:46;2.72;;;2.53;;
74616;SDS011;63123;50.906;4.198;2022-12-08T08:39:12;3.67;;;3.17;;
74616;SDS011;63123;50.906;4.198;2022-12-08T08:41:38;3.28;;;2.97;;
74616;SDS011;63123;50.906;4.198;2022-12-08T08:44:03;3.35;;;3.13;;
74616;SDS011;63123;50.906;4.198;2022-12-08T08:46:29;3.63;;;3.33;;
74616;SDS011;63123;50.906;4.198;2022-12-08T08:48:55;2.92;;;2.58;;
74616;SDS011;63123;50.906;4.198;2022-12-08T08:51:21;3.80;;;3.47;;
74616;SDS011;63123;50.906;4.198;2022-12-08T08:53:47;2.85;;;2.65;;
74616;SDS011;63123;50.906;4.198;2022-12-08T08:56:14;3.90;;;3.60;;
74616;SDS011;63123;50.906;4.198;2022-12-08T08:58:43;3.78;;;3.47;;
74616;SDS011;63123;50.906;4.198;2022-12-08T09:01:13;3.03;;;2.83;;
74616;SDS011;63123;50.906;4.198;2022-12-08T09:06:09;3.33;;;3.03;;
74616;SDS011;63123;50.906;4.198;2022-12-08T09:08:35;3.80;;;3.40;;
74616;SDS011;63123;50.906;4.198;2022-12-08T09:11:01;3.25;;;2.95;;
74616;SDS011;63123;50.906;4.198;2022-12-08T09:13:27;3.55;;;3.20;;
74616;SDS011;63123;50.906;4.198;2022-12-08T09:15:52;4.03;;;3.63;;
74616;SDS011;63123;50.906;4.198;2022-12-08T09:18:18;4.25;;;3.10;;
74616;SDS011;63123;50.906;4.198;2022-12-08T09:20:43;3.53;;;3.22;;
74616;SDS011;63123;50.906;4.198;2022-12-08T09:23:09;3.75;;;3.45;;
74616;SDS011;63123;50.906;4.198;2022-12-08T09:25:35;3.65;;;3.35;;
74616;SDS011;63123;50.906;4.198;2022-12-08T09:28:01;3.72;;;3.42;;
74616;SDS011;63123;50.906;4.198;2022-12-08T09:30:26;3.78;;;3.42;;
74616;SDS011;63123;50.906;4.198;2022-12-08T09:32:52;2.90;;;2.60;;
74616;SDS011;63123;50.906;4.198;2022-12-08T09:35:17;4.78;;;4.38;;
74616;SDS011;63123;50.906;4.198;2022-12-08T09:37:43;3.13;;;2.83;;
74616;SDS011;63123;50.906;4.198;2022-12-08T09:40:09;3.40;;;3.10;;
74616;SDS011;63123;50.906;4.198;2022-12-08T09:42:48;5.60;;;4.03;;
74616;SDS011;63123;50.906;4.198;2022-12-08T09:45:19;3.78;;;3.45;;
74616;SDS011;63123;50.906;4.198;2022-12-08T09:53:02;4.38;;;4.00;;
74616;SDS011;63123;50.906;4.198;2022-12-08T09:55:36;4.32;;;3.30;;
74616;SDS011;63123;50.906;4.198;2022-12-08T09:58:31;4.03;;;3.63;;
74616;SDS011;63123;50.906;4.198;2022-12-08T10:01:12;4.63;;;4.22;;
74616;SDS011;63123;50.906;4.198;2022-12-08T10:03:38;4.30;;;3.83;;
74616;SDS011;63123;50.906;4.198;2022-12-08T10:06:06;4.18;;;3.58;;
74616;SDS011;63123;50.906;4.198;2022-12-08T10:11:22;5.25;;;4.25;;
74616;SDS011;63123;50.906;4.198;2022-12-08T10:14:07;3.60;;;3.30;;
74616;SDS011;63123;50.906;4.198;2022-12-08T10:16:48;3.33;;;3.00;;
74616;SDS011;63123;50.906;4.198;2022-12-08T10:19:20;3.88;;;3.55;;
74616;SDS011;63123;50.906;4.198;2022-12-08T10:21:47;4.18;;;3.58;;
74616;SDS011;63123;50.906;4.198;2022-12-08T10:24:15;4.22;;;3.65;;
74616;SDS011;63123;50.906;4.198;2022-12-08T10:26:51;3.03;;;2.83;;
74616;SDS011;63123;50.906;4.198;2022-12-08T10:29:17;4.95;;;3.70;;
74616;SDS011;63123;50.906;4.198;2022-12-08T10:31:43;3.97;;;3.42;;
74616;SDS011;63123;50.906;4.198;2022-12-08T10:34:16;3.92;;;3.53;;
74616;SDS011;63123;50.906;4.198;2022-12-08T10:36:48;5.45;;;4.20;;
74616;SDS011;63123;50.906;4.198;2022-12-08T10:42:06;4.05;;;3.65;;
74616;SDS011;63123;50.906;4.198;2022-12-08T10:44:32;3.88;;;3.50;;
74616;SDS011;63123;50.906;4.198;2022-12-08T10:47:09;3.42;;;3.13;;
74616;SDS011;63123;50.906;4.198;2022-12-08T10:49:36;4.40;;;4.03;;
74616;SDS011;63123;50.906;4.198;2022-12-08T10:52:03;4.15;;;3.47;;
74616;SDS011;63123;50.906;4.198;2022-12-08T10:54:45;3.72;;;3.42;;
74616;SDS011;63123;50.906;4.198;2022-12-08T10:57:20;3.70;;;3.40;;
74616;SDS011;63123;50.906;4.198;2022-12-08T10:59:47;3.78;;;3.47;;
74616;SDS011;63123;50.906;4.198;2022-12-08T11:02:19;4.60;;;4.20;;
74616;SDS011;63123;50.906;4.198;2022-12-08T11:04:45;3.05;;;2.75;;
74616;SDS011;63123;50.906;4.198;2022-12-08T11:07:10;3.63;;;3.33;;
74616;SDS011;63123;50.906;4.198;2022-12-08T11:12:16;4.82;;;3.90;;
74616;SDS011;63123;50.906;4.198;2022-12-08T11:17:17;4.80;;;3.95;;
74616;SDS011;63123;50.906;4.198;2022-12-08T11:19:58;3.63;;;3.30;;
74616;SDS011;63123;50.906;4.198;2022-12-08T11:22:31;3.90;;;3.50;;
74616;SDS011;63123;50.906;4.198;2022-12-08T11:25:08;3.70;;;3.40;;
74616;SDS011;63123;50.906;4.198;2022-12-08T11:27:48;2.80;;;2.60;;
74616;SDS011;63123;50.906;4.198;2022-12-08T11:30:19;4.18;;;3.78;;
74616;SDS011;63123;50.906;4.198;2022-12-08T11:33:10;3.22;;;2.92;;
74616;SDS011;63123;50.906;4.198;2022-12-08T11:35:45;3.78;;;3.40;;
74616;SDS011;63123;50.906;4.198;2022-12-08T11:38:16;4.75;;;3.67;;
74616;SDS011;63123;50.906;4.198;2022-12-08T11:40:46;3.50;;;3.20;;
74616;SDS011;63123;50.906;4.198;2022-12-08T11:46:03;3.63;;;3.33;;
74616;SDS011;63123;50.906;4.198;2022-12-08T11:48:49;3.92;;;3.58;;
74616;SDS011;63123;50.906;4.198;2022-12-08T11:51:29;3.03;;;2.80;;
74616;SDS011;63123;50.906;4.198;2022-12-08T11:54:09;3.47;;;2.97;;
74616;SDS011;63123;50.906;4.198;2022-12-08T11:56:48;3.55;;;3.25;;
74616;SDS011;63123;50.906;4.198;2022-12-08T12:02:03;3.03;;;2.83;;
74616;SDS011;63123;50.906;4.198;2022-12-08T12:15:23;4.72;;;3.28;;
74616;SDS011;63123;50.906;4.198;2022-12-08T12:26:01;3.30;;;3.00;;
74616;SDS011;63123;50.906;4.198;2022-12-08T12:28:47;2.90;;;2.70;;
74616;SDS011;63123;50.906;4.198;2022-12-08T12:31:21;3.40;;;3.10;;
74616;SDS011;63123;50.906;4.198;2022-12-08T12:33:50;3.22;;;2.83;;
74616;SDS011;63123;50.906;4.198;2022-12-08T12:36:20;3.10;;;2.80;;
74616;SDS011;63123;50.906;4.198;2022-12-08T12:38:48;3.50;;;2.88;;
74616;SDS011;63123;50.906;4.198;2022-12-08T12:41:33;3.13;;;2.83;;
74616;SDS011;63123;50.906;4.198;2022-12-08T12:44:08;3.00;;;2.67;;
74616;SDS011;63123;50.906;4.198;2022-12-08T12:59:46;2.83;;;2.63;;
74616;SDS011;63123;50.906;4.198;2022-12-08T13:02:17;2.72;;;2.53;;
74616;SDS011;63123;50.906;4.198;2022-12-08T13:04:44;2.60;;;2.40;;
74616;SDS011;63123;50.906;4.198;2022-12-08T13:07:24;3.28;;;2.72;;
74616;SDS011;63123;50.906;4.198;2022-12-08T13:12:44;2.67;;;2.47;;
74616;SDS011;63123;50.906;4.198;2022-12-08T13:15:25;2.20;;;2.03;;
74616;SDS011;63123;50.906;4.198;2022-12-08T13:17:59;3.05;;;2.75;;
74616;SDS011;63123;50.906;4.198;2022-12-08T13:20:25;2.50;;;2.30;;
74616;SDS011;63123;50.906;4.198;2022-12-08T13:26:26;3.00;;;2.70;;
74616;SDS011;63123;50.906;4.198;2022-12-08T13:42:06;2.70;;;2.50;;
74616;SDS011;63123;50.906;4.198;2022-12-08T13:44:58;2.65;;;2.45;;
74616;SDS011;63123;50.906;4.198;2022-12-08T13:47:30;3.15;;;2.40;;
74616;SDS011;63123;50.906;4.198;2022-12-08T13:50:25;2.53;;;2.33;;
74616;SDS011;63123;50.906;4.198;2022-12-08T13:52:58;2.47;;;2.08;;
74616;SDS011;63123;50.906;4.198;2022-12-08T14:03:47;2.33;;;2.13;;
74616;SDS011;63123;50.906;4.198;2022-12-08T14:06:29;2.17;;;1.67;;
74616;SDS011;63123;50.906;4.198;2022-12-08T14:08:59;2.10;;;1.80;;
74616;SDS011;63123;50.906;4.198;2022-12-08T14:11:29;2.25;;;2.05;;
74616;SDS011;63123;50.906;4.198;2022-12-08T14:14:02;2.25;;;1.92;;
74616;SDS011;63123;50.906;4.198;2022-12-08T14:17:13;2.50;;;2.28;;
74616;SDS011;63123;50.906;4.198;2022-12-08T14:19:42;2.25;;;1.60;;
74616;SDS011;63123;50.906;4.198;2022-12-08T14:22:14;2.03;;;1.70;;
74616;SDS011;63123;50.906;4.198;2022-12-08T14:24:44;3.53;;;1.95;;
74616;SDS011;63123;50.906;4.198;2022-12-08T14:27:16;2.42;;;2.13;;
74616;SDS011;63123;50.906;4.198;2022-12-08T14:29:45;2.53;;;1.92;;
74616;SDS011;63123;50.906;4.198;2022-12-08T14:32:23;2.40;;;1.73;;
74616;SDS011;63123;50.906;4.198;2022-12-08T14:34:54;2.25;;;1.73;;
74616;SDS011;63123;50.906;4.198;2022-12-08T14:37:27;2.35;;;1.90;;
74616;SDS011;63123;50.906;4.198;2022-12-08T14:53:40;2.97;;;2.05;;
74616;SDS011;63123;50.906;4.198;2022-12-08T14:58:46;2.20;;;2.00;;
74616;SDS011;63123;50.906;4.198;2022-12-08T15:01:15;3.40;;;2.08;;
74616;SDS011;63123;50.906;4.198;2022-12-08T15:03:45;2.30;;;1.98;;
74616;SDS011;63123;50.906;4.198;2022-12-08T15:06:12;2.17;;;1.90;;
74616;SDS011;63123;50.906;4.198;2022-12-08T15:08:56;3.60;;;2.08;;
74616;SDS011;63123;50.906;4.198;2022-12-08T15:11:25;2.58;;;1.75;;
74616;SDS011;63123;50.906;4.198;2022-12-08T15:13:55;1.73;;;1.60;;
74616;SDS011;63123;50.906;4.198;2022-12-08T15:16:37;1.80;;;1.70;;
74616;SDS011;63123;50.906;4.198;2022-12-08T15:21:40;2.50;;;2.00;;
74616;SDS011;63123;50.906;4.198;2022-12-08T15:24:08;2.17;;;1.98;;
74616;SDS011;63123;50.906;4.198;2022-12-08T15:26:55;2.17;;;1.70;;
74616;SDS011;63123;50.906;4.198;2022-12-08T15:29:25;1.90;;;1.80;;
74616;SDS011;63123;50.906;4.198;2022-12-08T15:31:52;2.22;;;1.92;;
74616;SDS011;63123;50.906;4.198;2022-12-08T15:34:20;3.08;;;1.80;;
74616;SDS011;63123;50.906;4.198;2022-12-08T15:36:46;2.47;;;2.08;;
74616;SDS011;63123;50.906;4.198;2022-12-08T15:41:52;2.30;;;2.05;;
74616;SDS011;63123;50.906;4.198;2022-12-08T15:44:18;2.47;;;2.28;;
74616;SDS011;63123;50.906;4.198;2022-12-08T15:46:43;2.72;;;1.95;;
74616;SDS011;63123;50.906;4.198;2022-12-08T15:49:16;2.30;;;2.00;;
74616;SDS011;63123;50.906;4.198;2022-12-08T15:51:43;2.78;;;2.33;;
74616;SDS011;63123;50.906;4.198;2022-12-08T15:54:09;2.20;;;2.00;;
74616;SDS011;63123;50.906;4.198;2022-12-08T15:56:36;2.53;;;2.17;;
74616;SDS011;63123;50.906;4.198;2022-12-08T15:59:05;2.40;;;1.90;;
74616;SDS011;63123;50.906;4.198;2022-12-08T16:01:33;3.10;;;2.00;;
74616;SDS011;63123;50.906;4.198;2022-12-08T16:03:58;2.38;;;1.77;;
74616;SDS011;63123;50.906;4.198;2022-12-08T16:06:24;2.45;;;2.22;;
74616;SDS011;63123;50.906;4.198;2022-12-08T16:08:50;2.13;;;1.83;;
74616;SDS011;63123;50.906;4.198;2022-12-08T16:11:15;2.45;;;2.25;;
74616;SDS011;63123;50.906;4.198;2022-12-08T16:13:59;3.58;;;2.35;;
74616;SDS011;63123;50.906;4.198;2022-12-08T16:16:25;2.47;;;2.28;;
74616;SDS011;63123;50.906;4.198;2022-12-08T16:18:52;2.30;;;2.08;;
74616;SDS011;63123;50.906;4.198;2022-12-08T16:21:18;2.40;;;2.20;;
74616;SDS011;63123;50.906;4.198;2022-12-08T16:23:44;2.60;;;1.95;;
74616;SDS011;63123;50.906;4.198;2022-12-08T16:26:14;2.42;;;2.10;;
74616;SDS011;63123;50.906;4.198;2022-12-08T16:28:42;2.72;;;2.08;;
74616;SDS011;63123;50.906;4.198;2022-12-08T16:31:08;2.20;;;1.75;;
74616;SDS011;63123;50.906;4.198;2022-12-08T16:33:36;2.22;;;1.65;;
74616;SDS011;63123;50.906;4.198;2022-12-08T16:36:02;1.90;;;1.65;;
74616;SDS011;63123;50.906;4.198;2022-12-08T16:38:28;2.47;;;2.22;;
74616;SDS011;63123;50.906;4.198;2022-12-08T16:40:53;2.33;;;2.13;;
74616;SDS011;63123;50.906;4.198;2022-12-08T16:43:37;2.25;;;1.80;;
74616;SDS011;63123;50.906;4.198;2022-12-08T16:46:03;2.00;;;1.80;;
74616;SDS011;63123;50.906;4.198;2022-12-08T16:48:29;2.10;;;1.90;;
74616;SDS011;63123;50.906;4.198;2022-12-08T16:50:55;2.70;;;2.25;;
74616;SDS011;63123;50.906;4.198;2022-12-08T16:53:21;2.67;;;1.95;;
74616;SDS011;63123;50.906;4.198;2022-12-08T16:55:47;2.28;;;1.88;;
74616;SDS011;63123;50.906;4.198;2022-12-08T16:58:14;2.22;;;2.03;;
74616;SDS011;63123;50.906;4.198;2022-12-08T17:00:42;2.22;;;1.98;;
74616;SDS011;63123;50.906;4.198;2022-12-08T17:03:09;2.08;;;1.75;;
74616;SDS011;63123;50.906;4.198;2022-12-08T17:05:38;2.60;;;1.98;;
74616;SDS011;63123;50.906;4.198;2022-12-08T17:08:04;2.10;;;1.80;;
74616;SDS011;63123;50.906;4.198;2022-12-08T17:10:31;2.40;;;2.20;;
74616;SDS011;63123;50.906;4.198;2022-12-08T17:13:00;2.38;;;2.10;;
74616;SDS011;63123;50.906;4.198;2022-12-08T17:15:26;2.10;;;1.90;;
74616;SDS011;63123;50.906;4.198;2022-12-08T17:17:52;2.00;;;1.80;;
74616;SDS011;63123;50.906;4.198;2022-12-08T17:20:19;3.72;;;2.63;;
74616;SDS011;63123;50.906;4.198;2022-12-08T17:22:47;2.50;;;2.30;;